Time;durP1;ratioP1;P1;durP2;ratioP2;P2;SDS_P1;SDS_P2;PMS_P1;PMS_P2;Temp;Humidity;BMP_temperature;BMP_pressure;BME280_temperature;BME280_humidity;BME280_pressure;Samples;Min_cycle;Max_cycle;Signal;HPM_P1;HPM_P2
2021/09/06 00:00:15;;;;;;;;;;;;;;;7.27;72.79;101873.20;1643090;86;25769;-78
2021/09/06 00:02:44;;;;;;;;;;;;;;;7.22;72.72;101874.59;1614705;87;26586;-78
2021/09/06 00:05:12;;;;;;;;;;;;;;;7.19;72.69;101866.86;1636215;87;25888;-77
2021/09/06 00:07:40;;;;;;;;;;;;;;;7.16;72.94;101869.33;1639827;86;25884;-79
2021/09/06 00:10:36;;;;;;;;;;;;;;;7.17;73.05;101876.33;1581068;88;25894;-77
2021/09/06 00:13:04;;;;;;;;;;;;;;;7.15;72.63;101882.77;1621291;88;25960;-78
2021/09/06 00:15:32;;;;;;;;;;;;;;;7.09;72.30;101887.30;1594761;86;27521;-78
2021/09/06 00:17:59;;;;;;;;;;;;;;;7.02;72.19;101885.65;1599861;87;25768;-77
2021/09/06 00:20:26;;;;;;;;;;;;;;;6.95;72.17;101884.00;1589957;89;25415;-78
2021/09/06 00:22:53;;;;;;;;;;;;;;;6.91;72.25;101879.06;1610657;88;25908;-78
2021/09/06 00:25:20;;;;;;;;;;;;;;;6.84;72.13;101884.07;1589931;89;25791;-78
2021/09/06 00:27:47;;;;;;;;;;;;;;;6.79;72.17;101885.45;1579028;89;27577;-78
2021/09/06 00:30:14;;;;;;;;;;;;;;;6.73;72.28;101884.17;1597019;86;25765;-78
2021/09/06 00:32:41;;;;;;;;;;;;;;;6.67;72.35;101885.18;1642183;86;25818;-78
2021/09/06 00:35:08;;;;;;;;;;;;;;;6.60;72.07;101884.00;1640052;86;26626;-78
2021/09/06 00:37:35;;;;;;;;;;;;;;;6.53;72.12;101882.34;1639221;87;26610;-78
2021/09/06 00:40:02;;;;;;;;;;;;;;;6.49;72.21;101888.91;1640676;86;27197;-79
2021/09/06 00:42:29;;;;;;;;;;;;;;;6.45;72.13;101891.95;1624447;86;25907;-78
2021/09/06 00:44:55;;;;;;;;;;;;;;;6.39;72.18;101884.00;1618524;86;25862;-78
2021/09/06 00:47:22;;;;;;;;;;;;;;;6.34;72.47;101884.02;1645232;86;26517;-79
2021/09/06 00:49:49;;;;;;;;;;;;;;;6.34;72.53;101887.53;1623608;86;26002;-78
2021/09/06 00:52:15;;;;;;;;;;;;;;;6.33;72.56;101883.67;1650042;86;27594;-78
2021/09/06 00:54:42;;;;;;;;;;;;;;;6.29;72.57;101885.72;1640284;87;25883;-79
2021/09/06 00:57:10;;;;;;;;;;;;;;;6.28;72.72;101893.84;1644397;87;26505;-77
2021/09/06 00:59:37;;;;;;;;;;;;;;;6.28;72.69;101886.71;1646120;86;26649;-77
2021/09/06 01:02:04;;;;;;;;;;;;;;;6.23;72.79;101883.58;1628682;86;26114;-78
2021/09/06 01:04:31;;;;;;;;;;;;;;;6.18;73.04;101887.95;1644373;87;28416;-78
2021/09/06 01:07:17;;;;;;;;;;;;;;;6.21;73.37;101888.19;1643547;86;25964;-77
2021/09/06 01:09:52;;;;;;;;;;;;;;;6.24;73.49;101886.10;1590638;86;25908;-77
2021/09/06 01:12:20;;;;;;;;;;;;;;;6.23;73.12;101889.75;1650824;86;26484;-78
2021/09/06 01:14:47;;;;;;;;;;;;;;;6.20;72.98;101884.67;1644292;87;25851;-78
2021/09/06 01:17:14;;;;;;;;;;;;;;;6.15;73.11;101884.23;1628576;86;27626;-78
2021/09/06 01:19:43;;;;;;;;;;;;;;;6.09;73.01;101883.38;1648893;86;25889;-77
2021/09/06 01:22:10;;;;;;;;;;;;;;;6.07;73.04;101882.66;1622648;87;25838;-80
2021/09/06 01:24:38;;;;;;;;;;;;;;;6.06;73.05;101880.99;1631724;86;25893;-77
2021/09/06 01:27:07;;;;;;;;;;;;;;;6.05;73.04;101879.80;1630018;86;25881;-77
2021/09/06 01:29:34;;;;;;;;;;;;;;;6.01;72.79;101876.53;1603417;86;27646;-77
2021/09/06 01:32:00;;;;;;;;;;;;;;;5.98;72.91;101874.14;1651636;86;25755;-78
2021/09/06 01:34:28;;;;;;;;;;;;;;;5.94;73.06;101878.50;1644955;85;25908;-77
2021/09/06 01:36:56;;;;;;;;;;;;;;;5.89;73.20;101882.02;1628625;87;26655;-78
2021/09/06 01:39:24;;;;;;;;;;;;;;;5.84;73.09;101885.05;1653172;86;25798;-78
2021/09/06 01:41:51;;;;;;;;;;;;;;;5.80;73.05;101878.73;1645426;86;27584;-78
2021/09/06 01:44:18;;;;;;;;;;;;;;;5.74;73.02;101879.23;1625436;86;25816;-77
2021/09/06 01:46:45;;;;;;;;;;;;;;;5.70;73.02;101883.12;1599488;86;26560;-78
2021/09/06 01:49:13;;;;;;;;;;;;;;;5.66;73.03;101877.69;1643778;87;25897;-79
2021/09/06 01:51:41;;;;;;;;;;;;;;;5.66;73.09;101881.20;1640978;87;25821;-78
2021/09/06 01:54:09;;;;;;;;;;;;;;;5.65;73.15;101883.96;1645625;86;27577;-78
2021/09/06 01:56:37;;;;;;;;;;;;;;;5.64;73.17;101877.83;1623259;86;26164;-77
2021/09/06 01:59:04;;;;;;;;;;;;;;;5.59;73.06;101881.80;1645755;86;25861;-78
2021/09/06 02:01:31;;;;;;;;;;;;;;;5.56;73.15;101882.06;1631197;86;26175;-78
2021/09/06 02:03:57;;;;;;;;;;;;;;;5.52;73.08;101886.77;1623192;87;25884;-78
2021/09/06 02:06:25;;;;;;;;;;;;;;;5.49;73.07;101890.50;1644456;87;27582;-78
2021/09/06 02:08:53;;;;;;;;;;;;;;;5.48;73.24;101887.98;1620886;86;25833;-78
2021/09/06 02:11:22;;;;;;;;;;;;;;;5.47;73.23;101895.10;1651247;86;26487;-77
2021/09/06 02:13:49;;;;;;;;;;;;;;;5.44;73.33;101886.06;1643928;86;26503;-78
2021/09/06 02:16:17;;;;;;;;;;;;;;;5.40;73.16;101889.09;1633432;86;25928;-77
2021/09/06 02:18:45;;;;;;;;;;;;;;;5.32;73.02;101889.67;1651133;86;46466;-77
2021/09/06 02:21:12;;;;;;;;;;;;;;;5.26;73.26;101888.02;1623280;86;25383;-78
2021/09/06 02:23:41;;;;;;;;;;;;;;;5.21;73.36;101888.38;1624404;86;25853;-78
2021/09/06 02:26:08;;;;;;;;;;;;;;;5.18;73.37;101891.27;1644558;87;25851;-78
2021/09/06 02:28:36;;;;;;;;;;;;;;;5.17;73.48;101882.09;1617961;87;25824;-77
2021/09/06 02:31:04;;;;;;;;;;;;;;;5.13;73.53;101888.11;1641632;86;27608;-77
2021/09/06 02:33:33;;;;;;;;;;;;;;;5.11;73.73;101891.37;1639098;86;25529;-79
2021/09/06 02:36:10;;;;;;;;;;;;;;;5.13;74.05;101889.95;1618873;86;26023;-77
2021/09/06 02:38:37;;;;;;;;;;;;;;;5.15;74.41;101892.00;1644464;86;25874;-78
2021/09/06 02:41:06;;;;;;;;;;;;;;;5.12;74.39;101894.87;1621831;86;25748;-78
2021/09/06 02:43:32;;;;;;;;;;;;;;;5.11;74.34;101888.72;1641194;86;27493;-78
2021/09/06 02:46:00;;;;;;;;;;;;;;;5.10;74.39;101888.38;1642732;86;26602;-77
2021/09/06 02:48:27;;;;;;;;;;;;;;;5.11;74.10;101890.55;1596644;86;25963;-78
2021/09/06 02:50:55;;;;;;;;;;;;;;;5.10;74.23;101894.16;1642801;86;26555;-78
2021/09/06 02:53:23;;;;;;;;;;;;;;;5.07;73.93;101891.25;1623092;86;26610;-78
2021/09/06 02:55:50;;;;;;;;;;;;;;;5.01;73.96;101892.21;1618221;86;27325;-78
2021/09/06 02:58:18;;;;;;;;;;;;;;;4.96;73.89;101894.41;1641294;86;26504;-77
2021/09/06 03:00:45;;;;;;;;;;;;;;;4.91;73.93;101894.75;1618072;86;25908;-78
2021/09/06 03:03:12;;;;;;;;;;;;;;;4.86;74.00;101888.95;1642218;86;25901;-78
2021/09/06 03:05:39;;;;;;;;;;;;;;;4.85;74.00;101894.38;1642900;86;25831;-78
2021/09/06 03:08:06;;;;;;;;;;;;;;;4.82;74.21;101898.11;1619081;86;27301;-77
2021/09/06 03:10:33;;;;;;;;;;;;;;;4.84;74.37;101895.33;1644884;86;25932;-77
2021/09/06 03:13:00;;;;;;;;;;;;;;;4.82;74.13;101889.30;1617792;87;25829;-77
2021/09/06 03:15:27;;;;;;;;;;;;;;;4.81;74.14;101888.95;1615884;86;26537;-77
2021/09/06 03:17:56;;;;;;;;;;;;;;;4.77;74.12;101885.66;1620454;87;25880;-78
2021/09/06 03:20:34;;;;;;;;;;;;;;;4.72;74.19;101878.56;1568715;89;27493;-77
2021/09/06 03:23:01;;;;;;;;;;;;;;;4.68;74.25;101877.11;1622293;88;25422;-78
2021/09/06 03:25:28;;;;;;;;;;;;;;;4.65;74.26;101880.84;1644045;86;25426;-77
2021/09/06 03:27:55;;;;;;;;;;;;;;;4.64;74.25;101875.15;1603934;86;25874;-78
2021/09/06 03:30:22;;;;;;;;;;;;;;;4.64;74.30;101871.67;1644079;86;26043;-79
2021/09/06 03:32:50;;;;;;;;;;;;;;;4.62;74.46;101863.81;1582542;89;28376;-78
2021/09/06 03:35:17;;;;;;;;;;;;;;;4.61;74.40;101862.61;1622325;86;25919;-77
2021/09/06 03:37:45;;;;;;;;;;;;;;;4.58;74.30;101866.34;1642712;86;25816;-78
2021/09/06 03:40:12;;;;;;;;;;;;;;;4.59;74.47;101869.84;1623748;86;25851;-79
2021/09/06 03:42:39;;;;;;;;;;;;;;;4.62;74.70;101872.24;1648103;86;25889;-78
2021/09/06 03:45:07;;;;;;;;;;;;;;;4.66;74.82;101865.77;1651046;86;27559;-78
2021/09/06 03:47:34;;;;;;;;;;;;;;;4.70;74.82;101865.89;1623960;86;25830;-78
2021/09/06 03:50:02;;;;;;;;;;;;;;;4.69;74.58;101869.49;1648799;86;26491;-79
2021/09/06 03:52:30;;;;;;;;;;;;;;;4.62;74.33;101872.24;1634411;86;25929;-77
2021/09/06 03:54:57;;;;;;;;;;;;;;;4.55;74.32;101873.23;1632651;86;25957;-78
2021/09/06 03:57:26;;;;;;;;;;;;;;;4.49;74.27;101875.50;1648781;86;28272;-78
2021/09/06 03:59:52;;;;;;;;;;;;;;;4.47;74.47;101878.75;1603730;87;25812;-78
2021/09/06 04:02:19;;;;;;;;;;;;;;;4.49;74.71;101879.48;1645340;86;25913;-78
2021/09/06 04:04:46;;;;;;;;;;;;;;;4.51;74.96;101874.90;1647379;86;26925;-78
2021/09/06 04:07:12;;;;;;;;;;;;;;;4.52;74.96;101872.12;1624550;86;26543;-78
2021/09/06 04:09:41;;;;;;;;;;;;;;;4.51;74.98;101871.73;1646548;86;27583;-78
2021/09/06 04:12:08;;;;;;;;;;;;;;;4.51;75.00;101874.90;1618279;87;26508;-78
2021/09/06 04:14:35;;;;;;;;;;;;;;;4.50;74.88;101874.05;1623507;86;25473;-77
2021/09/06 04:17:03;;;;;;;;;;;;;;;4.51;74.87;101878.88;1650654;86;26573;-78
2021/09/06 04:19:31;;;;;;;;;;;;;;;4.51;75.13;101885.52;1623815;86;26014;-79
2021/09/06 04:21:59;;;;;;;;;;;;;;;4.49;75.00;101888.26;1649863;86;28287;-78
2021/09/06 04:24:27;;;;;;;;;;;;;;;4.47;75.17;101880.90;1654199;86;25334;-78
2021/09/06 04:26:55;;;;;;;;;;;;;;;4.46;75.30;101882.34;1579832;87;26104;-78
2021/09/06 04:29:23;;;;;;;;;;;;;;;4.45;75.33;101886.80;1640997;86;25817;-78
2021/09/06 04:31:52;;;;;;;;;;;;;;;4.45;75.41;101886.80;1619706;86;25872;-78
2021/09/06 04:34:18;;;;;;;;;;;;;;;4.44;75.36;101885.13;1617287;86;27323;-78
2021/09/06 04:36:46;;;;;;;;;;;;;;;4.40;75.31;101888.13;1639557;86;26663;-79
2021/09/06 04:39:15;;;;;;;;;;;;;;;4.39;75.54;101885.09;1622762;86;26023;-77
2021/09/06 04:41:44;;;;;;;;;;;;;;;4.39;75.69;101887.75;1652664;86;25829;-77
2021/09/06 04:44:11;;;;;;;;;;;;;;;4.41;75.81;101887.15;1651192;86;26490;-78
2021/09/06 04:46:38;;;;;;;;;;;;;;;4.43;75.79;101890.53;1624149;86;27539;-78
2021/09/06 04:49:05;;;;;;;;;;;;;;;4.42;75.86;101895.02;1645395;86;26007;-78
2021/09/06 04:51:32;;;;;;;;;;;;;;;4.42;75.94;101898.99;1644398;86;25879;-78
2021/09/06 04:54:00;;;;;;;;;;;;;;;4.46;76.20;101902.25;1625110;86;25909;-78
2021/09/06 04:56:28;;;;;;;;;;;;;;;4.49;76.36;101900.70;1651604;86;26166;-77
2021/09/06 04:58:56;;;;;;;;;;;;;;;4.52;76.50;101899.13;1622781;87;27676;-77
2021/09/06 05:01:23;;;;;;;;;;;;;;;4.55;76.75;101895.78;1644672;87;25825;-78
2021/09/06 05:03:50;;;;;;;;;;;;;;;4.58;76.88;101894.67;1641213;86;25866;-78
2021/09/06 05:06:17;;;;;;;;;;;;;;;4.61;77.30;101895.78;1600839;87;25888;-78
2021/09/06 05:08:44;;;;;;;;;;;;;;;4.65;77.75;101899.89;1650975;86;26109;-78
2021/09/06 05:11:11;;;;;;;;;;;;;;;4.69;78.13;101890.25;1646353;86;27692;-78
2021/09/06 05:13:37;;;;;;;;;;;;;;;4.77;78.34;101900.27;1601211;86;26017;-78
2021/09/06 05:16:05;;;;;;;;;;;;;;;4.85;78.49;101899.69;1651090;86;25926;-78
2021/09/06 05:18:32;;;;;;;;;;;;;;;4.92;78.81;101904.91;1612584;86;26461;-78
2021/09/06 05:21:00;;;;;;;;;;;;;;;4.99;79.13;101900.31;1631274;86;26589;-78
2021/09/06 05:23:27;;;;;;;;;;;;;;;5.08;79.42;101904.05;1651164;86;27618;-78
2021/09/06 05:25:56;;;;;;;;;;;;;;;5.16;79.70;101911.79;1594967;88;25849;-78
2021/09/06 05:28:23;;;;;;;;;;;;;;;5.25;80.02;101910.22;1591806;89;25895;-78
2021/09/06 05:30:50;;;;;;;;;;;;;;;5.35;80.20;101904.06;1583915;88;25886;-78
2021/09/06 05:33:17;;;;;;;;;;;;;;;5.46;80.46;101902.73;1602258;86;25853;-77
2021/09/06 05:35:46;;;;;;;;;;;;;;;5.57;80.77;101907.19;1640320;86;27644;-77
2021/09/06 05:38:13;;;;;;;;;;;;;;;5.67;81.16;101906.80;1618134;86;25949;-78
2021/09/06 05:40:45;;;;;;;;;;;;;;;5.78;81.40;101909.44;1617209;86;26267;-78
2021/09/06 05:43:13;;;;;;;;;;;;;;;5.89;81.67;101905.94;1640754;86;26139;-78
2021/09/06 05:45:40;;;;;;;;;;;;;;;6.03;82.12;101905.17;1578890;89;25945;-78
2021/09/06 05:48:07;;;;;;;;;;;;;;;6.17;82.26;101908.89;1602794;88;28413;-78
2021/09/06 05:50:34;;;;;;;;;;;;;;;6.31;82.63;101898.41;1602006;88;25828;-78
2021/09/06 05:53:15;;;;;;;;;;;;;;;6.46;82.79;101907.78;1598537;88;25893;-78
2021/09/06 05:55:43;;;;;;;;;;;;;;;6.62;83.38;101906.02;1592376;89;26530;-78
2021/09/06 05:58:11;;;;;;;;;;;;;;;6.78;83.22;101901.06;1587126;90;25871;-78
2021/09/06 06:00:38;;;;;;;;;;;;;;;6.92;83.48;101907.41;1612340;88;27511;-78
2021/09/06 06:03:06;;;;;;;;;;;;;;;7.07;83.51;101907.91;1616591;88;25909;-78
2021/09/06 06:05:33;;;;;;;;;;;;;;;7.22;83.37;101907.42;1597960;88;26676;-78
2021/09/06 06:08:00;;;;;;;;;;;;;;;7.37;83.43;101907.42;1622609;88;25848;-78
2021/09/06 06:10:27;;;;;;;;;;;;;;;7.51;83.29;101910.19;1627254;86;25824;-78
2021/09/06 06:12:55;;;;;;;;;;;;;;;7.65;83.10;101911.17;1593951;86;27092;-78
2021/09/06 06:15:22;;;;;;;;;;;;;;;7.79;82.86;101906.28;1643892;86;26636;-79
2021/09/06 06:17:48;;;;;;;;;;;;;;;7.93;82.64;101913.55;1597779;87;25915;-78
2021/09/06 06:20:18;;;;;;;;;;;;;;;8.07;82.74;101918.47;1642487;86;25917;-77
2021/09/06 06:23:04;;;;;;;;;;;;;;;8.20;82.73;101917.23;1646927;86;25814;-79
2021/09/06 06:25:32;;;;;;;;;;;;;;;8.38;82.83;101922.77;1624183;86;28292;-78
2021/09/06 06:28:08;;;;;;;;;;;;;;;8.52;83.20;101923.17;1648759;86;25914;-78
2021/09/06 06:30:35;;;;;;;;;;;;;;;8.69;83.09;101924.77;1627347;87;25799;-78
2021/09/06 06:33:03;;;;;;;;;;;;;;;8.81;82.70;101921.79;1629962;86;25980;-79
2021/09/06 06:35:32;;;;;;;;;;;;;;;8.95;82.32;101928.04;1628077;86;25959;-78
2021/09/06 06:37:59;;;;;;;;;;;;;;;9.06;81.74;101937.23;1625566;86;27213;-78
2021/09/06 06:40:25;;;;;;;;;;;;;;;9.19;81.83;101935.09;1648973;85;25768;-78
2021/09/06 06:42:54;;;;;;;;;;;;;;;9.34;81.98;101932.78;1622862;87;26620;-78
2021/09/06 06:45:21;;;;;;;;;;;;;;;9.49;81.94;101928.64;1646500;86;25872;-78
2021/09/06 06:47:48;;;;;;;;;;;;;;;9.61;80.79;101923.44;1652479;85;25941;-78
2021/09/06 06:50:14;;;;;;;;;;;;;;;9.75;79.67;101929.62;1604766;86;28290;-78
2021/09/06 06:52:42;;;;;;;;;;;;;;;9.88;79.15;101930.11;1650776;86;25777;-78
2021/09/06 06:55:09;;;;;;;;;;;;;;;9.99;77.66;101925.89;1651670;85;25897;-79
2021/09/06 06:57:36;;;;;;;;;;;;;;;10.12;77.58;101923.37;1617864;86;25886;-78
2021/09/06 07:00:06;;;;;;;;;;;;;;;10.23;76.55;101928.51;1623646;86;25850;-78
2021/09/06 07:02:34;;;;;;;;;;;;;;;10.34;76.96;101929.14;1628671;86;28152;-78
2021/09/06 07:05:00;;;;;;;;;;;;;;;10.46;76.96;101927.91;1645998;86;25865;-78
2021/09/06 07:07:28;;;;;;;;;;;;;;;10.60;77.91;101934.08;1642152;86;25963;-79
2021/09/06 07:09:54;;;;;;;;;;;;;;;10.73;77.21;101935.83;1605784;86;26465;-79
2021/09/06 07:12:21;;;;;;;;;;;;;;;10.84;77.23;101934.25;1644878;87;25873;-78
2021/09/06 07:14:48;;;;;;;;;;;;;;;10.95;76.95;101939.03;1646196;86;27598;-78
2021/09/06 07:17:14;;;;;;;;;;;;;;;11.06;76.29;101941.44;1622726;87;26019;-79
2021/09/06 07:19:41;;;;;;;;;;;;;;;11.18;76.61;101941.53;1628195;86;25792;-79
2021/09/06 07:22:08;;;;;;;;;;;;;;;11.30;75.92;101941.11;1619891;87;26098;-78
2021/09/06 07:24:36;;;;;;;;;;;;;;;11.42;76.18;101949.70;1649629;86;25771;-78
2021/09/06 07:27:04;;;;;;;;;;;;;;;11.55;75.84;101949.63;1630032;86;27261;-78
2021/09/06 07:29:30;;;;;;;;;;;;;;;11.64;75.71;101948.66;1634527;86;25979;-79
2021/09/06 07:32:00;;;;;;;;;;;;;;;11.76;76.14;101946.55;1625911;86;25836;-77
2021/09/06 07:34:27;;;;;;;;;;;;;;;11.89;76.23;101946.13;1631161;86;25844;-79
2021/09/06 07:36:53;;;;;;;;;;;;;;;11.99;75.68;101944.98;1644680;87;25975;-80
2021/09/06 07:39:22;;;;;;;;;;;;;;;12.12;75.97;101944.51;1644449;87;27661;-79
2021/09/06 07:41:49;;;;;;;;;;;;;;;12.23;75.30;101940.99;1627561;86;25863;-79
2021/09/06 07:44:15;;;;;;;;;;;;;;;12.33;74.15;101943.05;1624479;86;25767;-79
2021/09/06 07:46:43;;;;;;;;;;;;;;;12.43;75.18;101935.31;1623980;86;26002;-79
2021/09/06 07:49:11;;;;;;;;;;;;;;;12.52;73.79;101942.38;1625650;86;25860;-79
2021/09/06 07:51:38;;;;;;;;;;;;;;;12.63;74.18;101944.25;1622844;87;27594;-78
2021/09/06 07:54:06;;;;;;;;;;;;;;;12.75;73.70;101946.93;1646732;86;26650;-78
2021/09/06 07:56:35;;;;;;;;;;;;;;;12.85;72.75;101948.13;1576098;88;25948;-79
2021/09/06 07:59:02;;;;;;;;;;;;;;;12.96;72.25;101951.78;1589768;88;26015;-79
2021/09/06 08:01:31;;;;;;;;;;;;;;;13.06;71.30;101948.47;1600636;88;26403;-78
2021/09/06 08:03:58;;;;;;;;;;;;;;;13.17;70.35;101945.43;1589056;90;28242;-78
2021/09/06 08:06:24;;;;;;;;;;;;;;;13.28;69.14;101939.66;1579225;88;25850;-79
2021/09/06 08:08:52;;;;;;;;;;;;;;;13.38;69.22;101943.52;1573516;89;25916;-79
2021/09/06 08:11:19;;;;;;;;;;;;;;;13.51;67.91;101946.52;1602301;88;26628;-79
2021/09/06 08:13:46;;;;;;;;;;;;;;;13.64;68.47;101943.59;1584125;88;25892;-79
2021/09/06 08:16:13;;;;;;;;;;;;;;;13.72;67.07;101940.05;1624288;86;27565;-79
2021/09/06 08:18:41;;;;;;;;;;;;;;;13.80;66.11;101946.23;1641065;86;26379;-80
2021/09/06 08:21:09;;;;;;;;;;;;;;;13.86;65.62;101940.64;1603563;86;25822;-79
2021/09/06 08:23:36;;;;;;;;;;;;;;;13.94;65.74;101939.28;1652365;86;25909;-79
2021/09/06 08:26:05;;;;;;;;;;;;;;;14.05;65.29;101943.43;1631659;86;26036;-78
2021/09/06 08:28:32;;;;;;;;;;;;;;;14.13;64.22;101949.61;1628513;87;27606;-78
2021/09/06 08:30:59;;;;;;;;;;;;;;;14.20;63.36;101947.87;1646322;86;25732;-79
2021/09/06 08:33:26;;;;;;;;;;;;;;;14.30;62.62;101949.03;1645031;86;25347;-79
2021/09/06 08:35:53;;;;;;;;;;;;;;;14.41;62.82;101942.70;1625630;86;25894;-80
2021/09/06 08:38:21;;;;;;;;;;;;;;;14.48;62.44;101944.17;1653815;85;25868;-79
2021/09/06 08:40:50;;;;;;;;;;;;;;;14.56;60.66;101946.84;1604232;86;27604;-80
2021/09/06 08:43:17;;;;;;;;;;;;;;;14.63;59.87;101942.37;1647777;86;25788;-78
2021/09/06 08:45:44;;;;;;;;;;;;;;;14.72;59.91;101948.55;1644458;86;26014;-79
2021/09/06 08:48:11;;;;;;;;;;;;;;;14.79;60.29;101945.46;1631405;86;26592;-79
2021/09/06 08:50:42;;;;;;;;;;;;;;;14.84;59.09;101942.53;1626250;86;25970;-79
2021/09/06 08:53:09;;;;;;;;;;;;;;;14.92;58.28;101942.99;1644628;87;27608;-79
2021/09/06 08:55:39;;;;;;;;;;;;;;;14.98;58.33;101943.10;1641765;86;26338;-79
2021/09/06 08:58:06;;;;;;;;;;;;;;;15.03;57.82;101940.70;1642532;86;25870;-79
2021/09/06 09:00:34;;;;;;;;;;;;;;;15.10;58.98;101942.98;1599978;87;26524;-79
2021/09/06 09:03:11;;;;;;;;;;;;;;;15.22;58.21;101950.97;1644145;86;25803;-79
2021/09/06 09:06:02;;;;;;;;;;;;;;;15.30;57.00;101951.38;1628312;86;27335;-79
2021/09/06 09:08:31;;;;;;;;;;;;;;;15.31;57.83;101949.84;1643167;85;25864;-78
2021/09/06 09:11:05;;;;;;;;;;;;;;;15.39;56.77;101945.73;1630863;86;26514;-79
2021/09/06 09:13:45;;;;;;;;;;;;;;;15.46;57.66;101955.31;1631213;86;25925;-79
2021/09/06 09:16:26;;;;;;;;;;;;;;;15.57;57.40;101951.30;1644797;86;25825;-79
2021/09/06 09:18:58;;;;;;;;;;;;;;;15.65;57.54;101955.25;1630007;86;27548;-79
2021/09/06 09:21:26;;;;;;;;;;;;;;;15.68;53.69;101949.45;1623184;87;25873;-78
2021/09/06 09:24:01;;;;;;;;;;;;;;;15.73;54.77;101957.85;1575984;89;26016;-79
2021/09/06 09:26:31;;;;;;;;;;;;;;;15.73;53.95;101958.70;1575159;89;25816;-78
2021/09/06 09:29:20;;;;;;;;;;;;;;;15.76;54.29;101950.73;1596514;88;26695;-79
2021/09/06 09:32:08;;;;;;;;;;;;;;;15.77;53.40;101946.48;1616802;88;27541;-79
2021/09/06 09:34:38;;;;;;;;;;;;;;;15.74;53.37;101935.23;1580554;89;25839;-79
2021/09/06 09:37:08;;;;;;;;;;;;;;;15.78;53.29;101931.13;1625048;86;26034;-79
2021/09/06 09:39:35;;;;;;;;;;;;;;;15.89;55.17;101939.56;1620105;86;25932;-78
2021/09/06 09:42:05;;;;;;;;;;;;;;;15.96;53.68;101931.54;1618949;87;26663;-80
2021/09/06 09:44:36;;;;;;;;;;;;;;;15.95;53.23;101927.99;1639068;86;27648;-79
2021/09/06 09:47:07;;;;;;;;;;;;;;;15.99;52.97;101919.02;1616970;86;25890;-79
2021/09/06 09:49:34;;;;;;;;;;;;;;;16.02;52.64;101918.61;1625318;86;25935;-80
2021/09/06 09:52:01;;;;;;;;;;;;;;;16.07;53.30;101920.24;1645219;86;26551;-79
2021/09/06 09:54:29;;;;;;;;;;;;;;;16.09;52.56;101918.19;1598747;87;25874;-79
2021/09/06 09:56:57;;;;;;;;;;;;;;;16.11;52.49;101920.18;1640904;87;28344;-79
2021/09/06 09:59:25;;;;;;;;;;;;;;;16.12;52.27;101918.63;1603583;86;25643;-80
2021/09/06 10:02:01;;;;;;;;;;;;;;;16.17;51.83;101915.36;1625599;86;25926;-78
2021/09/06 10:04:34;;;;;;;;;;;;;;;16.21;51.23;101912.59;1624813;86;26015;-79
2021/09/06 10:07:01;;;;;;;;;;;;;;;16.25;52.04;101911.71;1574575;87;25923;-79
2021/09/06 10:09:30;;;;;;;;;;;;;;;16.28;51.61;101907.25;1640563;87;27597;-80
2021/09/06 10:12:05;;;;;;;;;;;;;;;16.26;50.62;101906.10;1600869;88;26541;-79
2021/09/06 10:14:33;;;;;;;;;;;;;;;16.26;50.53;101906.61;1622722;86;25892;-79
2021/09/06 10:17:07;;;;;;;;;;;;;;;16.29;51.63;101903.03;1624275;86;25939;-79
2021/09/06 10:19:48;;;;;;;;;;;;;;;16.34;51.41;101896.51;1646976;86;26119;-79
2021/09/06 10:22:27;;;;;;;;;;;;;;;16.40;51.71;101897.63;1623181;86;27488;-78
2021/09/06 10:25:03;;;;;;;;;;;;;;;16.46;51.62;101896.34;1641160;86;25890;-80
2021/09/06 10:27:35;;;;;;;;;;;;;;;16.55;53.42;101891.13;1623497;86;26036;-80
2021/09/06 10:30:10;;;;;;;;;;;;;;;16.67;53.69;101891.45;1643232;86;25808;-79
2021/09/06 10:32:47;;;;;;;;;;;;;;;16.72;51.84;101885.76;1644430;86;25820;-78
2021/09/06 10:35:21;;;;;;;;;;;;;;;16.72;51.27;101887.66;1616410;87;27690;-78
2021/09/06 10:38:04;;;;;;;;;;;;;;;16.77;52.58;101891.43;1636971;86;25907;-79
2021/09/06 10:40:35;;;;;;;;;;;;;;;16.81;51.45;101883.23;1621588;86;26414;-79
2021/09/06 10:43:13;;;;;;;;;;;;;;;16.85;50.57;101883.70;1645045;86;26445;-79
2021/09/06 10:45:42;;;;;;;;;;;;;;;16.92;50.10;101883.20;1651897;86;25854;-79
2021/09/06 10:48:10;;;;;;;;;;;;;;;16.93;49.43;101881.69;1601798;87;27566;-79
2021/09/06 10:50:37;;;;;;;;;;;;;;;16.99;50.40;101874.63;1621928;86;26019;-79
2021/09/06 10:53:04;;;;;;;;;;;;;;;17.04;50.57;101872.18;1646496;86;25917;-80
2021/09/06 10:55:31;;;;;;;;;;;;;;;17.11;50.53;101875.74;1575572;90;26598;-79
2021/09/06 10:58:00;;;;;;;;;;;;;;;17.22;51.46;101874.34;1567984;90;25615;-80
2021/09/06 11:00:27;;;;;;;;;;;;;;;17.33;49.69;101877.34;1621041;86;27681;-79
2021/09/06 11:02:54;;;;;;;;;;;;;;;17.38;50.63;101872.17;1618783;86;25985;-80
2021/09/06 11:05:23;;;;;;;;;;;;;;;17.45;50.47;101867.61;1637710;86;25901;-79
2021/09/06 11:07:54;;;;;;;;;;;;;;;17.43;49.27;101868.33;1624531;86;25860;-80
2021/09/06 11:10:22;;;;;;;;;;;;;;;17.46;49.63;101868.45;1603449;88;26015;-79
2021/09/06 11:12:54;;;;;;;;;;;;;;;17.42;48.38;101868.54;1644081;86;28295;-79
2021/09/06 11:15:29;;;;;;;;;;;;;;;17.38;48.09;101864.56;1607252;87;26113;-80
2021/09/06 11:17:57;;;;;;;;;;;;;;;17.37;48.18;101859.66;1646425;86;25812;-79
2021/09/06 11:20:26;;;;;;;;;;;;;;;17.38;48.16;101864.05;1629077;86;25816;-79
2021/09/06 11:23:03;;;;;;;;;;;;;;;17.36;48.25;101863.42;1629148;86;25782;-80
2021/09/06 11:25:32;;;;;;;;;;;;;;;17.39;48.67;101859.45;1646688;86;27509;-79
2021/09/06 11:28:14;;;;;;;;;;;;;;;17.50;49.04;101858.91;1628652;86;26543;-79
2021/09/06 11:30:44;;;;;;;;;;;;;;;17.56;48.73;101857.59;1652119;86;25885;-80
2021/09/06 11:33:12;;;;;;;;;;;;;;;17.54;47.20;101852.89;1623922;86;26840;-79
2021/09/06 11:35:41;;;;;;;;;;;;;;;17.59;48.29;101853.64;1620466;86;25842;-79
2021/09/06 11:38:08;;;;;;;;;;;;;;;17.65;48.71;101850.13;1648373;86;27497;-80
2021/09/06 11:40:35;;;;;;;;;;;;;;;17.70;49.09;101845.78;1625097;86;26614;-80
2021/09/06 11:43:04;;;;;;;;;;;;;;;17.81;49.83;101857.06;1599607;87;25985;-80
2021/09/06 11:45:31;;;;;;;;;;;;;;;17.88;48.95;101857.93;1654935;86;26560;-79
2021/09/06 11:48:06;;;;;;;;;;;;;;;17.88;47.41;101845.73;1646562;86;25747;-79
2021/09/06 11:50:35;;;;;;;;;;;;;;;17.87;47.21;101851.67;1651540;86;27522;-80
2021/09/06 11:53:05;;;;;;;;;;;;;;;17.88;48.27;101839.77;1624537;86;25867;-80
2021/09/06 11:55:32;;;;;;;;;;;;;;;17.95;48.52;101837.08;1600700;87;25870;-79
2021/09/06 11:58:12;;;;;;;;;;;;;;;17.95;47.03;101835.21;1652653;86;25779;-79
2021/09/06 12:00:41;;;;;;;;;;;;;;;17.88;46.89;101827.57;1621521;87;25899;-79
2021/09/06 12:03:09;;;;;;;;;;;;;;;17.90;48.05;101832.27;1647553;86;27617;-79
2021/09/06 12:05:42;;;;;;;;;;;;;;;17.95;47.45;101824.88;1653236;86;25797;-79
2021/09/06 12:08:13;;;;;;;;;;;;;;;18.02;46.50;101818.95;1629529;86;25652;-80
2021/09/06 12:10:41;;;;;;;;;;;;;;;18.04;46.70;101814.16;1643194;86;25801;-79
2021/09/06 12:13:10;;;;;;;;;;;;;;;18.11;47.09;101806.87;1645009;87;25974;-80
2021/09/06 12:15:41;;;;;;;;;;;;;;;18.13;45.96;101806.15;1607318;86;27327;-80
2021/09/06 12:18:10;;;;;;;;;;;;;;;18.14;45.85;101807.30;1651548;86;26124;-79
2021/09/06 12:20:39;;;;;;;;;;;;;;;18.12;46.08;101807.18;1603286;87;25873;-80
2021/09/06 12:23:13;;;;;;;;;;;;;;;18.11;46.11;101801.45;1622291;86;26450;-80
2021/09/06 12:25:42;;;;;;;;;;;;;;;18.15;46.66;101806.78;1643639;86;25950;-79
2021/09/06 12:28:11;;;;;;;;;;;;;;;18.22;46.16;101807.08;1633758;86;27610;-79
2021/09/06 12:30:39;;;;;;;;;;;;;;;18.34;46.79;101805.44;1649100;86;25805;-80
2021/09/06 12:33:06;;;;;;;;;;;;;;;18.46;45.76;101805.15;1644770;86;25824;-80
2021/09/06 12:35:34;;;;;;;;;;;;;;;18.45;45.92;101802.66;1623805;86;26034;-79
2021/09/06 12:38:02;;;;;;;;;;;;;;;18.47;46.24;101799.20;1651541;86;26456;-78
2021/09/06 12:40:28;;;;;;;;;;;;;;;18.53;45.80;101799.72;1624921;86;27550;-79
2021/09/06 12:42:55;;;;;;;;;;;;;;;18.60;46.44;101791.06;1599416;86;26014;-79
2021/09/06 12:45:22;;;;;;;;;;;;;;;18.71;47.09;101792.30;1648931;86;25768;-80
2021/09/06 12:47:49;;;;;;;;;;;;;;;18.81;46.15;101783.19;1630720;86;26549;-78
2021/09/06 12:50:15;;;;;;;;;;;;;;;18.86;45.21;101780.69;1650467;85;25600;-79